Time;durP1;ratioP1;P1;durP2;ratioP2;P2;SDS_P1;SDS_P2;PMS_P1;PMS_P2;Temp;Humidity;BMP_temperature;BMP_pressure;BME280_temperature;BME280_humidity;BME280_pressure;Samples;Min_cycle;Max_cycle;Signal;HPM_P1;HPM_P2
2022/04/30 00:02:13;;;;;;;11.77;4.60;;;;;;;9.58;63.93;100985.78;5004330;28;20334;-80
2022/04/30 00:04:44;;;;;;;9.73;5.00;;;;;;;9.65;63.56;100983.84;5005970;28;20454;-80
2022/04/30 00:07:12;;;;;;;10.40;6.28;;;;;;;9.67;62.89;100975.44;5004620;28;20038;-81
2022/04/30 00:12:40;;;;;;;8.85;3.97;;;;;;;9.77;62.30;100980.34;5001073;28;20562;-80
2022/04/30 00:15:06;;;;;;;10.40;5.95;;;;;;;9.65;62.24;100974.81;5004696;28;20022;-80
2022/04/30 00:17:31;;;;;;;9.23;4.63;;;;;;;9.79;61.52;100983.66;5007236;28;20110;-81
2022/04/30 00:19:57;;;;;;;9.63;4.40;;;;;;;9.71;61.82;100964.91;5001741;28;20068;-80
2022/04/30 00:22:22;;;;;;;10.40;4.60;;;;;;;9.90;60.96;100971.16;5004801;28;20060;-79
2022/04/30 00:24:48;;;;;;;19.33;5.95;;;;;;;9.74;61.49;100967.19;5004070;28;20026;-80
2022/04/30 00:27:15;;;;;;;10.32;4.13;;;;;;;9.71;61.77;100965.75;5004949;28;20346;-79
2022/04/30 00:29:41;;;;;;;8.88;3.90;;;;;;;9.54;62.14;100968.28;5003413;28;20025;-80
2022/04/30 00:32:06;;;;;;;8.55;4.30;;;;;;;9.86;61.38;100965.34;5003650;28;20088;-81
2022/04/30 00:34:32;;;;;;;9.82;5.38;;;;;;;9.62;62.20;100973.38;5004443;28;20037;-81
2022/04/30 00:37:02;;;;;;;10.02;4.85;;;;;;;9.54;62.53;100965.56;5000950;28;20030;-80
2022/04/30 00:39:27;;;;;;;10.55;6.15;;;;;;;9.82;61.21;100958.69;5004784;28;20476;-79
2022/04/30 00:41:53;;;;;;;12.45;5.13;;;;;;;9.24;63.37;100967.13;5001831;28;20072;-79
2022/04/30 00:47:21;;;;;;;10.07;5.65;;;;;;;9.56;61.84;100960.69;4999984;28;20658;-81
2022/04/30 00:49:47;;;;;;;10.77;5.25;;;;;;;9.69;62.01;100957.81;5003427;28;20026;-80
2022/04/30 00:52:15;;;;;;;14.73;6.10;;;;;;;9.25;63.78;100957.09;5004217;28;20042;-81
2022/04/30 00:54:41;;;;;;;9.82;5.65;;;;;;;9.29;64.06;100959.13;5000858;28;20105;-80
2022/04/30 00:57:09;;;;;;;12.30;5.50;;;;;;;9.39;63.08;100955.88;5004495;28;20508;-80
2022/04/30 00:59:38;;;;;;;11.20;4.15;;;;;;;9.63;61.96;100953.28;5003837;28;20025;-80
2022/04/30 01:02:03;;;;;;;9.32;5.18;;;;;;;9.41;62.89;100951.03;5003471;28;20036;-80
2022/04/30 01:04:28;;;;;;;12.13;4.57;;;;;;;9.28;63.60;100954.72;5004795;28;20453;-81
2022/04/30 01:07:00;;;;;;;10.45;5.97;;;;;;;9.39;63.06;100947.72;5002114;28;20405;-80
2022/04/30 01:09:31;;;;;;;9.55;5.30;;;;;;;9.37;63.30;100955.28;5002621;28;20392;-80
2022/04/30 01:12:00;;;;;;;10.32;4.55;;;;;;;9.08;64.21;100952.22;5002686;28;20114;-81
2022/04/30 01:14:29;;;;;;;9.95;4.72;;;;;;;9.27;63.63;100957.69;5003922;28;20092;-80
2022/04/30 01:16:57;;;;;;;8.45;4.93;;;;;;;9.06;64.16;100957.06;5006193;28;20140;-80
2022/04/30 01:19:24;;;;;;;11.32;5.90;;;;;;;8.95;64.30;100951.31;5003750;28;20433;-81
2022/04/30 01:21:56;;;;;;;11.95;4.63;;;;;;;9.05;64.31;100944.53;5003259;28;20379;-79
2022/04/30 01:24:23;;;;;;;12.75;5.75;;;;;;;8.84;65.07;100939.31;5002780;28;20590;-82
2022/04/30 01:26:52;;;;;;;10.73;5.90;;;;;;;9.16;63.76;100943.78;5003890;28;20057;-80
2022/04/30 01:29:19;;;;;;;11.88;5.00;;;;;;;8.90;64.52;100940.28;5002915;28;20077;-80
2022/04/30 01:37:23;;;;;;;11.73;5.13;;;;;;;8.86;65.40;100930.91;5003163;28;20116;-80
2022/04/30 01:39:52;;;;;;;16.50;6.80;;;;;;;8.88;64.64;100931.53;5004095;28;20088;-80
2022/04/30 01:42:18;;;;;;;12.13;5.28;;;;;;;9.04;64.34;100931.97;5002654;28;20037;-80
2022/04/30 01:44:46;;;;;;;17.48;6.65;;;;;;;8.67;65.86;100930.88;5004011;28;20104;-81
2022/04/30 01:47:14;;;;;;;13.65;5.28;;;;;;;8.64;65.81;100934.84;5003005;28;20046;-79
2022/04/30 01:49:39;;;;;;;8.40;4.45;;;;;;;8.73;65.46;100923.69;5001986;28;20029;-81
2022/04/30 01:52:10;;;;;;;11.75;5.47;;;;;;;8.64;65.71;100931.31;5003272;28;20648;-81
2022/04/30 01:54:36;;;;;;;14.20;6.03;;;;;;;8.61;65.92;100926.31;5001294;28;20021;-80
2022/04/30 01:57:02;;;;;;;13.75;5.93;;;;;;;8.67;65.43;100922.72;5004178;28;20036;-80
2022/04/30 01:59:28;;;;;;;10.65;5.65;;;;;;;8.38;67.05;100922.31;5002981;28;20025;-80
2022/04/30 02:01:55;;;;;;;11.45;6.03;;;;;;;8.32;66.84;100915.06;5003367;28;20046;-80
2022/04/30 02:04:21;;;;;;;9.73;4.82;;;;;;;8.50;65.79;100911.56;5003269;28;20034;-79
2022/04/30 02:09:32;;;;;;;8.40;4.45;;;;;;;7.61;69.56;100927.59;5002994;28;20044;-81
2022/04/30 02:11:59;;;;;;;13.52;5.85;;;;;;;7.78;69.21;100921.66;5017720;28;20053;-80
2022/04/30 02:14:29;;;;;;;11.25;4.68;;;;;;;7.77;68.96;100922.72;5038128;28;20060;-80
2022/04/30 02:16:54;;;;;;;9.55;5.05;;;;;;;7.77;69.56;100917.31;5021708;28;20029;-80
2022/04/30 02:19:20;;;;;;;11.85;5.30;;;;;;;7.72;69.40;100915.22;5023100;28;20032;-81
2022/04/30 02:21:47;;;;;;;16.05;6.05;;;;;;;7.32;70.64;100916.25;5008067;28;20058;-81
2022/04/30 02:24:15;;;;;;;10.50;4.93;;;;;;;7.32;71.33;100916.25;5003038;28;20030;-80
2022/04/30 02:26:42;;;;;;;10.95;6.20;;;;;;;7.42;71.08;100913.09;5003552;28;20439;-81
2022/04/30 02:29:08;;;;;;;16.10;6.40;;;;;;;7.86;69.43;100913.28;5002740;28;20524;-79
2022/04/30 02:31:35;;;;;;;9.95;5.13;;;;;;;7.74;69.85;100902.28;5003033;28;20044;-80
2022/04/30 02:34:00;;;;;;;12.30;5.70;;;;;;;7.39;71.33;100905.34;5000965;28;20080;-80
2022/04/30 02:36:26;;;;;;;12.37;5.57;;;;;;;7.21;72.00;100905.03;5003590;28;20022;-80
2022/04/30 02:38:54;;;;;;;12.50;5.88;;;;;;;7.14;72.26;100898.75;5002872;28;20259;-80
2022/04/30 02:41:21;;;;;;;10.40;4.70;;;;;;;6.84;73.28;100894.69;5007443;28;20566;-79
2022/04/30 02:43:47;;;;;;;10.30;5.03;;;;;;;7.19;71.92;100906.28;4983912;28;20092;-80
2022/04/30 02:46:14;;;;;;;12.00;6.13;;;;;;;6.66;74.08;100900.75;4982751;28;20026;-80
2022/04/30 02:48:39;;;;;;;12.48;6.55;;;;;;;6.62;74.43;100897.66;4986532;28;20060;-80
2022/04/30 02:51:04;;;;;;;15.57;6.25;;;;;;;6.65;73.93;100908.06;5001612;28;20079;-80
2022/04/30 02:53:29;;;;;;;15.60;5.25;;;;;;;6.74;74.32;100900.53;5005638;28;20488;-81
2022/04/30 02:55:55;;;;;;;11.80;5.68;;;;;;;6.58;74.27;100896.41;5006311;28;20511;-80
2022/04/30 03:01:05;;;;;;;13.65;6.50;;;;;;;6.54;74.12;100895.16;5006890;28;20104;-81
2022/04/30 03:03:31;;;;;;;14.25;5.82;;;;;;;6.72;73.99;100899.09;5006250;28;20112;-80
2022/04/30 03:05:57;;;;;;;9.85;5.00;;;;;;;6.46;74.84;100903.50;5022208;28;20457;-79
2022/04/30 03:08:26;;;;;;;12.02;6.43;;;;;;;6.69;73.56;100896.81;5005594;28;20030;-80
2022/04/30 03:10:54;;;;;;;10.40;4.30;;;;;;;6.23;75.66;100892.03;5013359;28;20053;-80
2022/04/30 03:13:20;;;;;;;11.90;6.22;;;;;;;6.30;75.76;100894.75;5024372;28;20440;-80
2022/04/30 03:15:47;;;;;;;9.40;4.50;;;;;;;6.17;76.15;100893.69;5026411;28;20036;-81
2022/04/30 03:23:39;;;;;;;13.80;6.78;;;;;;;6.47;74.74;100897.84;5006966;28;20034;-80
2022/04/30 03:26:05;;;;;;;12.23;4.78;;;;;;;6.92;73.66;100890.91;5005711;28;20032;-80
2022/04/30 03:28:32;;;;;;;17.38;6.68;;;;;;;6.38;76.36;100891.84;5007262;28;20265;-80
2022/04/30 03:30:58;;;;;;;11.55;4.93;;;;;;;7.04;73.81;100888.38;5006244;28;20038;-80
2022/04/30 03:33:24;;;;;;;9.27;4.18;;;;;;;7.41;72.62;100895.97;5005071;28;20037;-79
2022/04/30 03:36:04;;;;;;;15.60;4.97;;;;;;;7.42;72.19;100900.34;5021381;28;20030;-79
2022/04/30 03:38:29;;;;;;;12.55;5.80;;;;;;;6.89;73.48;100892.16;5005226;28;20033;-80
2022/04/30 03:40:54;;;;;;;14.60;6.00;;;;;;;6.96;73.96;100885.88;5005965;28;20049;-79
2022/04/30 03:43:20;;;;;;;14.32;6.20;;;;;;;7.18;73.19;100891.06;5005416;28;20026;-79
2022/04/30 03:45:46;;;;;;;14.70;5.80;;;;;;;7.18;74.03;100893.78;5006088;28;20473;-80
2022/04/30 03:48:14;;;;;;;12.75;5.53;;;;;;;7.27;73.25;100892.47;5005753;28;20100;-80
2022/04/30 03:50:39;;;;;;;10.15;4.45;;;;;;;7.51;71.96;100898.22;5004932;28;20651;-80
2022/04/30 03:53:05;;;;;;;16.33;6.50;;;;;;;7.35;72.04;100892.22;5006633;28;20151;-80
2022/04/30 03:55:30;;;;;;;17.02;5.13;;;;;;;7.18;73.28;100888.34;5005168;28;20041;-80
2022/04/30 03:57:56;;;;;;;12.75;5.07;;;;;;;7.25;72.71;100891.84;5006481;28;20018;-79
2022/04/30 04:00:22;;;;;;;10.93;4.75;;;;;;;7.08;73.01;100892.31;5004533;28;20029;-80
2022/04/30 04:02:47;;;;;;;9.70;4.20;;;;;;;7.67;71.24;100890.59;5007789;28;20445;-79
2022/04/30 04:05:12;;;;;;;11.02;5.07;;;;;;;7.78;70.81;100887.22;4985662;28;20532;-79
2022/04/30 04:07:39;;;;;;;10.23;5.30;;;;;;;7.99;68.96;100896.06;4986132;28;20117;-80
2022/04/30 04:10:05;;;;;;;10.90;5.43;;;;;;;7.96;68.87;100888.34;4985791;28;20034;-80
2022/04/30 04:12:30;;;;;;;13.00;5.53;;;;;;;7.78;70.22;100897.22;5005062;28;20037;-79
2022/04/30 04:17:39;;;;;;;9.48;4.53;;;;;;;7.43;71.89;100891.16;5012851;28;20257;-78
2022/04/30 04:20:07;;;;;;;12.70;4.38;;;;;;;7.78;70.58;100884.50;5025016;28;20021;-80
2022/04/30 04:22:33;;;;;;;10.52;5.13;;;;;;;7.77;70.29;100884.72;5020164;28;20030;-80
2022/04/30 04:27:42;;;;;;;10.65;5.47;;;;;;;7.12;72.70;100890.84;5006265;28;20049;-79
2022/04/30 04:30:08;;;;;;;9.17;4.73;;;;;;;7.24;72.62;100887.50;5003848;28;20030;-80
2022/04/30 04:32:33;;;;;;;12.65;4.88;;;;;;;7.56;71.44;100895.69;5004059;28;20754;-79
2022/04/30 04:34:59;;;;;;;10.02;4.97;;;;;;;7.68;71.29;100889.56;5019469;28;20435;-79
2022/04/30 04:37:24;;;;;;;9.95;5.45;;;;;;;7.32;72.08;100889.94;5005606;28;20026;-78
2022/04/30 04:39:49;;;;;;;14.13;6.35;;;;;;;7.27;72.54;100897.91;5005504;28;20094;-79
2022/04/30 04:45:18;;;;;;;17.05;5.55;;;;;;;7.11;73.99;100893.78;5004247;28;20053;-79
2022/04/30 04:47:49;;;;;;;13.48;5.43;;;;;;;7.36;72.60;100895.78;5003944;28;20034;-78
2022/04/30 04:50:15;;;;;;;9.90;4.43;;;;;;;7.28;72.89;100898.75;5005435;28;20390;-79
2022/04/30 04:52:41;;;;;;;8.82;4.15;;;;;;;7.38;72.56;100903.72;5004975;28;20026;-80
2022/04/30 04:55:06;;;;;;;13.45;4.88;;;;;;;7.74;71.13;100907.69;5004964;28;20030;-80
2022/04/30 04:57:32;;;;;;;10.90;4.30;;;;;;;7.63;71.53;100900.25;5004731;28;20072;-80
2022/04/30 04:59:57;;;;;;;13.40;5.15;;;;;;;7.53;71.97;100909.69;5003947;28;20255;-79
2022/04/30 05:02:23;;;;;;;15.00;6.28;;;;;;;7.58;71.65;100915.31;5004510;28;20473;-80
2022/04/30 05:04:48;;;;;;;11.98;6.35;;;;;;;7.84;70.32;100918.09;5004229;28;20422;-80
2022/04/30 05:07:13;;;;;;;11.18;5.18;;;;;;;7.73;70.38;100916.88;5005502;28;20080;-80
2022/04/30 05:09:39;;;;;;;13.05;5.82;;;;;;;8.01;69.42;100914.84;5003807;28;20037;-80
2022/04/30 05:12:05;;;;;;;10.27;5.33;;;;;;;8.22;68.25;100913.66;5003976;28;20050;-80
2022/04/30 05:14:34;;;;;;;9.48;5.43;;;;;;;7.48;71.45;100921.16;5004582;28;20298;-80
2022/04/30 05:17:01;;;;;;;16.10;5.00;;;;;;;7.67;71.28;100923.16;5006525;28;20025;-80
2022/04/30 05:19:27;;;;;;;11.52;4.22;;;;;;;8.01;69.00;100917.56;5024369;28;20029;-80
2022/04/30 05:21:52;;;;;;;9.85;5.72;;;;;;;8.15;68.70;100919.16;5008019;28;20439;-80
2022/04/30 05:24:18;;;;;;;12.88;5.43;;;;;;;8.00;69.28;100922.16;5004648;28;20076;-80
2022/04/30 05:26:43;;;;;;;19.00;5.28;;;;;;;7.40;71.99;100926.88;5003735;28;20026;-79
2022/04/30 05:29:08;;;;;;;11.40;5.60;;;;;;;7.53;71.17;100925.97;5004672;28;20034;-79
2022/04/30 05:31:34;;;;;;;9.27;5.15;;;;;;;8.00;69.44;100933.03;5003155;28;20088;-80
2022/04/30 05:33:59;;;;;;;15.48;5.60;;;;;;;8.00;69.45;100926.75;5003581;28;20332;-80
2022/04/30 05:36:24;;;;;;;13.00;5.38;;;;;;;7.86;70.32;100932.28;5004190;28;20029;-80
2022/04/30 05:38:51;;;;;;;13.40;5.88;;;;;;;7.04;73.77;100929.06;5002668;28;20121;-80
2022/04/30 05:41:16;;;;;;;15.48;6.60;;;;;;;7.67;71.15;100934.03;5003377;28;20040;-80
2022/04/30 05:43:42;;;;;;;17.25;6.90;;;;;;;7.30;72.42;100926.50;5002495;28;20056;-80
2022/04/30 05:46:07;;;;;;;10.83;5.63;;;;;;;7.67;71.54;100928.59;5003918;28;20030;-81
2022/04/30 05:48:33;;;;;;;12.30;6.07;;;;;;;7.38;72.57;100928.13;5003228;28;20333;-80
2022/04/30 05:50:58;;;;;;;13.45;5.85;;;;;;;7.36;73.27;100937.28;5003062;28;20168;-80
2022/04/30 05:53:23;;;;;;;12.68;4.43;;;;;;;7.82;71.16;100937.31;5003684;28;20030;-81
2022/04/30 05:55:49;;;;;;;8.88;4.78;;;;;;;7.87;70.25;100935.84;5002710;28;20042;-80
2022/04/30 05:58:14;;;;;;;11.13;4.78;;;;;;;7.79;71.30;100945.88;5003534;28;20076;-80
2022/04/30 06:00:40;;;;;;;10.38;4.75;;;;;;;7.54;71.71;100934.94;5001897;28;20034;-80
2022/04/30 06:03:05;;;;;;;12.57;6.07;;;;;;;7.81;70.94;100934.81;5003682;28;20380;-80
2022/04/30 06:05:30;;;;;;;15.30;5.53;;;;;;;7.65;72.25;100936.97;5002100;28;20430;-80
2022/04/30 06:07:55;;;;;;;9.90;4.77;;;;;;;8.10;70.29;100948.84;5003245;28;20029;-79
2022/04/30 06:10:21;;;;;;;10.70;5.13;;;;;;;7.98;70.95;100946.00;4999129;28;20414;-80
2022/04/30 06:12:47;;;;;;;15.30;5.97;;;;;;;8.05;70.63;100944.06;5002632;28;20260;-80
2022/04/30 06:15:12;;;;;;;11.93;4.72;;;;;;;8.26;69.83;100950.19;5003533;28;20464;-80
2022/04/30 06:17:37;;;;;;;15.30;5.30;;;;;;;8.17;70.54;100948.81;5004201;28;20469;-78
2022/04/30 06:20:03;;;;;;;10.27;4.67;;;;;;;7.93;71.49;100948.53;5008366;28;20030;-78
2022/04/30 06:22:28;;;;;;;11.35;5.00;;;;;;;8.06;70.42;100943.00;4996469;28;20914;-80
2022/04/30 06:24:54;;;;;;;12.02;5.05;;;;;;;7.99;71.18;100946.84;4984311;28;20037;-79
2022/04/30 06:27:20;;;;;;;14.15;5.40;;;;;;;8.24;70.75;100944.13;4981800;28;20039;-79
2022/04/30 06:29:45;;;;;;;15.40;6.18;;;;;;;8.45;69.23;100933.97;4984626;28;20022;-80
2022/04/30 06:32:12;;;;;;;9.10;4.40;;;;;;;8.55;69.07;100938.06;5000539;28;20077;-80
2022/04/30 06:34:39;;;;;;;12.85;4.20;;;;;;;8.56;69.86;100950.59;5002700;28;20492;-80
2022/04/30 06:39:54;;;;;;;12.05;5.13;;;;;;;8.64;69.17;100953.06;5000658;28;20068;-80
2022/04/30 06:42:20;;;;;;;14.77;4.10;;;;;;;8.83;68.24;100950.38;5003011;28;20038;-80
2022/04/30 06:44:47;;;;;;;11.25;3.72;;;;;;;8.69;68.53;100955.94;5001168;28;20268;-80
2022/04/30 06:47:12;;;;;;;13.48;4.20;;;;;;;8.86;68.26;100955.38;5003142;28;20039;-80
2022/04/30 06:49:38;;;;;;;11.00;4.68;;;;;;;8.93;68.01;100953.41;5003712;28;20082;-80
2022/04/30 06:52:03;;;;;;;12.17;4.27;;;;;;;8.79;68.37;100944.56;5001200;28;20029;-79
2022/04/30 06:57:14;;;;;;;9.32;4.60;;;;;;;8.14;70.04;100960.09;5001875;28;20100;-79
2022/04/30 06:59:41;;;;;;;13.60;4.93;;;;;;;8.52;70.21;100948.31;5004540;28;20207;-80
2022/04/30 07:02:18;;;;;;;9.93;4.60;;;;;;;8.79;69.35;100941.84;5002210;28;20099;-80
2022/04/30 07:04:46;;;;;;;12.57;5.50;;;;;;;8.72;69.37;100944.66;5002289;28;20017;-80
2022/04/30 07:07:12;;;;;;;11.25;5.05;;;;;;;8.99;68.13;100930.75;5003729;28;20030;-80
2022/04/30 07:09:38;;;;;;;7.68;4.80;;;;;;;9.13;67.93;100944.25;5001875;28;20031;-80
2022/04/30 07:12:06;;;;;;;11.93;6.03;;;;;;;9.11;67.78;100930.03;5002525;28;20077;-80
2022/04/30 07:14:35;;;;;;;18.02;7.35;;;;;;;9.13;67.73;100932.53;5001795;28;20562;-80
2022/04/30 07:17:04;;;;;;;11.90;6.50;;;;;;;9.46;67.20;100937.56;5006164;28;20507;-79
2022/04/30 07:19:29;;;;;;;11.98;6.90;;;;;;;9.52;66.69;100937.72;5022616;28;20029;-81
2022/04/30 07:21:54;;;;;;;12.38;6.60;;;;;;;9.84;65.82;100934.78;5006898;28;20025;-79
2022/04/30 07:24:19;;;;;;;13.67;6.43;;;;;;;9.81;65.53;100943.41;5003713;28;20025;-80
2022/04/30 07:26:45;;;;;;;9.73;5.57;;;;;;;9.82;65.23;100934.19;5001445;28;20271;-79
2022/04/30 07:29:10;;;;;;;10.55;5.40;;;;;;;9.61;65.42;100933.63;5003541;28;20271;-80
2022/04/30 07:31:36;;;;;;;9.63;5.30;;;;;;;9.75;65.51;100936.16;5000912;28;20065;-80
2022/04/30 07:36:45;;;;;;;12.13;5.47;;;;;;;9.40;66.47;100933.03;5002204;28;20484;-81
2022/04/30 07:39:11;;;;;;;10.80;5.57;;;;;;;9.55;65.93;100927.19;5004136;28;20029;-79
2022/04/30 07:41:36;;;;;;;13.02;7.00;;;;;;;10.01;64.42;100925.94;5006120;28;20034;-80
2022/04/30 07:44:01;;;;;;;16.25;6.63;;;;;;;10.29;63.14;100927.22;5005014;28;20033;-80
2022/04/30 07:46:26;;;;;;;12.10;4.63;;;;;;;10.32;62.29;100929.47;5006487;28;20034;-80
2022/04/30 07:48:52;;;;;;;10.68;5.35;;;;;;;10.32;61.53;100932.19;5004382;28;20025;-80
2022/04/30 07:51:23;;;;;;;13.88;5.40;;;;;;;9.90;63.04;100941.19;5006346;28;20104;-80
2022/04/30 07:53:49;;;;;;;8.65;5.18;;;;;;;9.99;62.56;100933.50;5005088;28;20030;-80
2022/04/30 07:56:14;;;;;;;11.95;6.07;;;;;;;10.02;61.51;100928.44;5006099;28;20072;-80
2022/04/30 07:58:40;;;;;;;8.98;5.03;;;;;;;9.84;61.94;100925.78;5006750;28;20100;-81
2022/04/30 08:01:05;;;;;;;9.75;5.53;;;;;;;9.80;61.12;100930.88;5004785;28;20547;-80
2022/04/30 08:03:32;;;;;;;10.13;4.95;;;;;;;9.88;60.79;100933.25;5006599;28;20034;-81
2022/04/30 08:05:57;;;;;;;9.75;6.03;;;;;;;9.71;61.27;100929.50;5004967;28;20034;-80
2022/04/30 08:08:22;;;;;;;11.35;7.35;;;;;;;9.78;60.05;100927.53;5006909;28;20562;-80
2022/04/30 08:10:48;;;;;;;8.00;3.83;;;;;;;9.79;60.07;100923.75;5004482;28;20050;-81
2022/04/30 08:13:13;;;;;;;12.67;5.67;;;;;;;9.89;59.88;100929.47;5006528;28;20105;-80
2022/04/30 08:15:43;;;;;;;9.30;5.60;;;;;;;9.95;59.09;100921.41;5005655;28;20263;-81
2022/04/30 08:18:10;;;;;;;8.65;4.97;;;;;;;9.97;59.53;100924.75;5017815;28;20029;-80
2022/04/30 08:23:19;;;;;;;9.85;5.07;;;;;;;10.20;59.71;100921.25;5002873;28;20460;-80
2022/04/30 08:25:45;;;;;;;10.40;5.57;;;;;;;9.98;59.05;100921.81;5006062;28;20532;-80
2022/04/30 08:28:10;;;;;;;12.80;5.88;;;;;;;10.07;59.21;100924.19;5004517;28;20504;-81
2022/04/30 08:30:36;;;;;;;14.30;5.95;;;;;;;10.34;58.80;100913.69;5005025;28;20117;-80
2022/04/30 08:33:01;;;;;;;11.10;6.00;;;;;;;10.56;58.58;100915.88;5003841;28;20075;-81
2022/04/30 08:35:27;;;;;;;14.05;6.72;;;;;;;10.64;59.25;100919.34;5004602;28;20465;-80
2022/04/30 08:37:53;;;;;;;12.30;5.43;;;;;;;10.56;56.36;100913.16;5005517;28;20018;-81
2022/04/30 08:40:18;;;;;;;13.25;6.30;;;;;;;10.50;54.98;100912.19;5003734;28;20048;-80
2022/04/30 08:42:45;;;;;;;7.68;3.75;;;;;;;10.58;55.05;100912.91;5005933;28;20022;-80
2022/04/30 08:45:11;;;;;;;13.05;3.53;;;;;;;10.60;54.02;100914.34;5003993;28;20121;-81
2022/04/30 08:47:41;;;;;;;11.68;3.75;;;;;;;10.70;55.37;100921.13;5004175;28;20167;-81
2022/04/30 08:50:11;;;;;;;6.07;2.65;;;;;;;11.21;54.74;100915.09;5003535;28;20124;-81
2022/04/30 08:52:37;;;;;;;6.93;3.40;;;;;;;11.34;54.35;100914.03;5004450;28;20057;-80
2022/04/30 08:55:08;;;;;;;6.88;3.50;;;;;;;11.46;53.86;100924.91;5005469;28;20034;-82
2022/04/30 08:57:33;;;;;;;7.28;3.05;;;;;;;11.73;54.59;100909.84;5003486;28;20084;-81
2022/04/30 08:59:59;;;;;;;5.60;2.75;;;;;;;11.76;53.24;100920.25;5005579;28;20034;-79
2022/04/30 09:02:25;;;;;;;8.57;3.33;;;;;;;11.55;54.06;100920.69;5008368;28;20038;-81
2022/04/30 09:04:51;;;;;;;5.78;2.55;;;;;;;11.52;53.07;100915.75;4986081;28;20389;-81
2022/04/30 09:07:19;;;;;;;5.90;2.40;;;;;;;11.31;53.82;100920.78;4983179;28;20125;-81
2022/04/30 09:09:53;;;;;;;6.18;3.10;;;;;;;11.19;54.21;100906.31;4984896;28;20129;-80
2022/04/30 09:12:18;;;;;;;6.30;3.35;;;;;;;11.25;54.41;100916.28;5003165;28;20140;-81
2022/04/30 09:14:43;;;;;;;7.80;3.97;;;;;;;11.25;54.40;100910.00;5003553;28;20124;-81
2022/04/30 09:17:14;;;;;;;5.95;2.60;;;;;;;11.37;54.17;100907.25;5009870;28;20316;-80
2022/04/30 09:19:57;;;;;;;3.97;1.83;;;;;;;11.14;52.36;100909.78;5022995;28;20025;-81
2022/04/30 09:25:15;;;;;;;12.85;3.33;;;;;;;11.16;53.46;100898.63;5004664;28;20377;-79
2022/04/30 09:27:50;;;;;;;7.07;2.55;;;;;;;11.46;53.00;100899.50;5003284;28;20034;-80
2022/04/30 09:30:20;;;;;;;6.75;2.85;;;;;;;11.61;53.75;100905.28;5004176;28;20034;-79
2022/04/30 09:32:56;;;;;;;7.72;2.45;;;;;;;11.64;53.71;100895.72;5003223;28;20026;-79
2022/04/30 09:38:06;;;;;;;;;;;;;;;12.21;51.44;100888.56;5005588;28;20056;-78
2022/04/30 09:40:32;;;;;;;7.82;2.67;;;;;;;12.43;51.34;100890.53;5002290;28;20404;-80
2022/04/30 09:42:58;;;;;;;6.60;2.50;;;;;;;12.83;50.46;100890.59;5005089;28;20116;-80
2022/04/30 09:45:31;;;;;;;5.35;2.30;;;;;;;12.26;48.91;100885.91;5001375;28;20040;-80
2022/04/30 09:47:59;;;;;;;6.80;4.13;;;;;;;12.61;49.84;100885.88;5002895;28;20030;-80
2022/04/30 09:56:07;;;;;;;6.38;2.22;;;;;;;13.51;48.65;100870.31;5004445;28;20041;-80
2022/04/30 09:58:36;;;;;;;10.77;3.92;;;;;;;13.15;47.14;100876.22;5002695;28;20030;-80
2022/04/30 10:01:16;;;;;;;9.98;2.85;;;;;;;12.76;48.33;100884.44;5003683;28;20048;-80
2022/04/30 10:03:42;;;;;;;5.60;2.40;;;;;;;12.81;48.99;100873.59;4984480;28;20030;-78
2022/04/30 10:06:08;;;;;;;7.57;2.83;;;;;;;12.48;48.70;100876.13;4983318;28;20145;-80
2022/04/30 10:08:35;;;;;;;12.05;3.00;;;;;;;12.80;48.55;100866.44;4984984;28;20113;-81
2022/04/30 10:11:07;;;;;;;6.78;3.15;;;;;;;12.56;49.10;100880.34;4998400;28;20069;-80
2022/04/30 10:13:44;;;;;;;5.95;2.80;;;;;;;12.82;48.92;100880.69;5023796;28;20033;-80
2022/04/30 10:16:15;;;;;;;6.80;3.28;;;;;;;13.18;48.70;100870.22;5022442;28;20320;-81
2022/04/30 10:18:46;;;;;;;7.05;2.70;;;;;;;13.60;47.52;100867.97;5023062;28;20116;-79
2022/04/30 10:21:18;;;;;;;8.40;3.65;;;;;;;13.48;47.88;100870.84;5013754;28;20547;-80
2022/04/30 10:23:44;;;;;;;8.63;3.22;;;;;;;13.93;47.86;100867.19;5002416;28;20061;-81
2022/04/30 10:26:10;;;;;;;8.02;3.25;;;;;;;14.18;48.61;100862.97;5004088;28;20040;-81
2022/04/30 10:28:35;;;;;;;7.38;2.80;;;;;;;14.11;47.20;100865.97;5002505;28;20026;-81
2022/04/30 10:31:11;;;;;;;5.97;3.30;;;;;;;13.62;48.04;100863.06;5003637;28;20097;-81
2022/04/30 10:33:48;;;;;;;7.57;3.10;;;;;;;14.02;47.44;100857.38;5002576;28;20592;-81
2022/04/30 10:36:14;;;;;;;8.40;3.20;;;;;;;13.69;46.54;100853.81;5002524;28;20470;-80
2022/04/30 10:38:40;;;;;;;7.95;2.58;;;;;;;13.83;46.92;100860.50;5004149;28;20033;-81
2022/04/30 10:41:08;;;;;;;8.80;3.35;;;;;;;13.79;46.34;100859.38;5001693;28;20112;-80
2022/04/30 10:43:42;;;;;;;9.10;2.65;;;;;;;13.89;46.18;100850.44;5004024;28;20562;-81
2022/04/30 10:46:13;;;;;;;;;;;;;;;13.52;47.76;100849.22;5002259;28;20476;-81
2022/04/30 10:48:39;;;;;;;6.32;3.60;;;;;;;13.08;47.76;100845.44;5003052;28;19920;-81
2022/04/30 10:51:13;;;;;;;11.73;3.88;;;;;;;13.19;48.23;100849.97;5002614;28;20468;-81
2022/04/30 10:53:45;;;;;;;4.38;2.13;;;;;;;13.35;48.03;100849.31;5002026;28;20068;-81
2022/04/30 10:56:11;;;;;;;10.00;3.97;;;;;;;13.55;46.01;100846.00;5003738;28;20021;-80
2022/04/30 11:01:21;;;;;;;6.60;3.25;;;;;;;14.18;45.72;100830.91;5000669;28;20401;-81
2022/04/30 11:03:49;;;;;;;7.37;3.00;;;;;;;13.97;44.17;100838.16;5002585;28;20034;-80
2022/04/30 11:06:23;;;;;;;4.90;2.38;;;;;;;14.53;44.45;100833.31;5003064;28;20267;-80
2022/04/30 11:09:00;;;;;;;8.10;2.70;;;;;;;14.83;45.29;100818.13;5003636;28;20049;-81
2022/04/30 11:11:25;;;;;;;9.52;3.33;;;;;;;14.45;45.31;100821.78;4999590;28;20042;-80
2022/04/30 11:14:07;;;;;;;6.78;3.17;;;;;;;14.15;45.33;100827.88;5004743;28;20037;-81
2022/04/30 11:16:37;;;;;;;5.30;2.88;;;;;;;13.88;44.98;100818.63;5005444;28;20034;-81
2022/04/30 11:19:07;;;;;;;6.80;2.97;;;;;;;13.80;45.98;100832.78;5004411;28;20382;-81
2022/04/30 11:21:35;;;;;;;6.82;3.00;;;;;;;14.24;44.35;100816.16;5005948;28;20037;-81
2022/04/30 11:24:00;;;;;;;7.65;2.92;;;;;;;14.29;44.96;100812.63;5004342;28;20385;-80
2022/04/30 11:26:27;;;;;;;8.68;3.33;;;;;;;14.21;45.13;100816.69;5006787;28;20045;-81
2022/04/30 11:28:52;;;;;;;8.02;2.90;;;;;;;14.26;45.25;100812.34;5005579;28;20030;-80
2022/04/30 11:31:19;;;;;;;9.90;3.65;;;;;;;14.28;44.52;100805.47;5006171;28;20448;-81
2022/04/30 11:33:45;;;;;;;9.00;4.07;;;;;;;14.39;45.16;100805.53;5005198;28;20028;-81
2022/04/30 11:36:10;;;;;;;5.70;2.85;;;;;;;14.49;43.22;100811.09;5007076;28;20487;-80
2022/04/30 11:38:36;;;;;;;7.88;3.22;;;;;;;14.47;42.29;100797.66;5005890;28;20034;-81
2022/04/30 11:41:05;;;;;;;4.70;2.58;;;;;;;14.59;41.86;100793.84;5004125;28;20124;-80
2022/04/30 11:46:14;;;;;;;6.70;3.20;;;;;;;14.79;41.93;100778.56;5001479;28;20048;-80
2022/04/30 11:48:40;;;;;;;5.77;2.97;;;;;;;15.10;41.71;100794.34;5005764;28;20368;-80
2022/04/30 11:51:07;;;;;;;7.15;2.70;;;;;;;14.87;42.87;100788.25;5012377;28;20278;-81
2022/04/30 11:53:33;;;;;;;6.70;3.13;;;;;;;14.30;43.15;100792.31;5006085;28;20030;-81
2022/04/30 11:55:58;;;;;;;5.70;2.83;;;;;;;14.69;42.78;100782.94;5009361;28;20469;-78
2022/04/30 11:58:24;;;;;;;5.95;3.45;;;;;;;15.04;42.44;100788.84;5006851;28;20068;-80
2022/04/30 12:00:52;;;;;;;6.75;3.88;;;;;;;15.72;43.37;100783.44;5014959;28;20021;-79
2022/04/30 12:03:28;;;;;;;9.93;3.75;;;;;;;15.87;42.50;100782.63;5017462;28;20021;-78
2022/04/30 12:05:53;;;;;;;8.18;4.20;;;;;;;14.75;44.08;100772.78;5043047;28;20384;-81
2022/04/30 12:08:18;;;;;;;7.90;4.70;;;;;;;14.30;44.89;100781.34;5026709;28;20025;-81
2022/04/30 12:10:54;;;;;;;9.23;4.30;;;;;;;14.21;45.37;100782.94;5019499;28;20061;-80
2022/04/30 12:13:23;;;;;;;6.03;3.92;;;;;;;13.79;45.51;100777.16;5009343;28;20044;-80
2022/04/30 12:15:49;;;;;;;9.07;4.03;;;;;;;13.52;46.25;100772.53;5023650;28;20025;-80
2022/04/30 12:27:03;;;;;;;6.68;3.88;;;;;;;15.47;39.25;100768.59;5005027;28;20065;-80
2022/04/30 12:29:30;;;;;;;4.63;2.38;;;;;;;15.71;39.39;100757.06;5004107;28;20277;-80
2022/04/30 12:31:56;;;;;;;9.85;3.50;;;;;;;16.05;39.32;100754.88;5014090;28;20030;-79
2022/04/30 12:34:27;;;;;;;7.05;4.45;;;;;;;16.21;40.07;100764.72;5004594;28;20431;-81